sensor_id;sensor_type;location;lat;lon;timestamp;pressure;altitude;pressure_sealevel;temperature
71081;BMP180;58740;50.672;18.690;2022-07-21T00:00:52;99348.60;;;23.60
71081;BMP180;58740;50.672;18.690;2022-07-21T00:03:20;99348.60;;;23.56
71081;BMP180;58740;50.672;18.690;2022-07-21T00:05:48;99341.20;;;23.56
71081;BMP180;58740;50.672;18.690;2022-07-21T00:08:15;99340.20;;;23.50
71081;BMP180;58740;50.672;18.690;2022-07-21T00:10:43;99343.00;;;23.50
71081;BMP180;58740;50.672;18.690;2022-07-21T00:13:11;99346.40;;;23.50
71081;BMP180;58740;50.672;18.690;2022-07-21T00:15:39;99342.40;;;23.50
71081;BMP180;58740;50.672;18.690;2022-07-21T00:18:07;99341.80;;;23.44
71081;BMP180;58740;50.672;18.690;2022-07-21T00:20:34;99341.00;;;23.40
71081;BMP180;58740;50.672;18.690;2022-07-21T00:23:03;99340.60;;;23.40
71081;BMP180;58740;50.672;18.690;2022-07-21T00:25:31;99340.40;;;23.40
71081;BMP180;58740;50.672;18.690;2022-07-21T00:28:04;99333.60;;;23.36
71081;BMP180;58740;50.672;18.690;2022-07-21T00:30:33;99330.40;;;23.30
71081;BMP180;58740;50.672;18.690;2022-07-21T00:33:01;99329.40;;;23.30
71081;BMP180;58740;50.672;18.690;2022-07-21T00:35:29;99332.00;;;23.30
71081;BMP180;58740;50.672;18.690;2022-07-21T00:37:56;99327.20;;;23.30
71081;BMP180;58740;50.672;18.690;2022-07-21T00:40:25;99325.80;;;23.20
71081;BMP180;58740;50.672;18.690;2022-07-21T00:42:53;99330.00;;;23.20
71081;BMP180;58740;50.672;18.690;2022-07-21T00:45:20;99327.80;;;23.20
71081;BMP180;58740;50.672;18.690;2022-07-21T00:47:49;99330.60;;;23.20
71081;BMP180;58740;50.672;18.690;2022-07-21T00:50:20;99324.20;;;23.20
71081;BMP180;58740;50.672;18.690;2022-07-21T00:52:48;99325.20;;;23.20
71081;BMP180;58740;50.672;18.690;2022-07-21T00:55:21;99319.60;;;23.20
71081;BMP180;58740;50.672;18.690;2022-07-21T00:57:51;99323.80;;;23.20
71081;BMP180;58740;50.672;18.690;2022-07-21T01:00:25;99323.00;;;23.20
71081;BMP180;58740;50.672;18.690;2022-07-21T01:02:57;99327.40;;;23.20
71081;BMP180;58740;50.672;18.690;2022-07-21T01:05:25;99323.20;;;23.20
71081;BMP180;58740;50.672;18.690;2022-07-21T01:07:55;99318.80;;;23.20
71081;BMP180;58740;50.672;18.690;2022-07-21T01:10:24;99313.20;;;23.20
71081;BMP180;58740;50.672;18.690;2022-07-21T01:12:52;99311.20;;;23.20
71081;BMP180;58740;50.672;18.690;2022-07-21T01:15:21;99306.60;;;23.20
71081;BMP180;58740;50.672;18.690;2022-07-21T01:17:50;99310.80;;;23.18
71081;BMP180;58740;50.672;18.690;2022-07-21T01:20:21;99310.60;;;23.14
71081;BMP180;58740;50.672;18.690;2022-07-21T01:22:53;99304.60;;;23.20
71081;BMP180;58740;50.672;18.690;2022-07-21T01:25:21;99304.60;;;23.20
71081;BMP180;58740;50.672;18.690;2022-07-21T01:27:49;99305.40;;;23.20
71081;BMP180;58740;50.672;18.690;2022-07-21T01:30:18;99299.20;;;23.20
71081;BMP180;58740;50.672;18.690;2022-07-21T01:32:46;99296.20;;;23.20
71081;BMP180;58740;50.672;18.690;2022-07-21T01:35:15;99287.60;;;23.10
71081;BMP180;58740;50.672;18.690;2022-07-21T01:37:47;99287.80;;;23.10
71081;BMP180;58740;50.672;18.690;2022-07-21T01:40:17;99286.60;;;23.10
71081;BMP180;58740;50.672;18.690;2022-07-21T01:43:14;99282.60;;;23.02
71081;BMP180;58740;50.672;18.690;2022-07-21T01:45:42;99284.80;;;23.00
71081;BMP180;58740;50.672;18.690;2022-07-21T01:48:10;99286.80;;;22.92
71081;BMP180;58740;50.672;18.690;2022-07-21T01:50:38;99287.60;;;22.90
71081;BMP180;58740;50.672;18.690;2022-07-21T01:53:06;99293.60;;;22.90
71081;BMP180;58740;50.672;18.690;2022-07-21T01:55:34;99289.60;;;22.90
71081;BMP180;58740;50.672;18.690;2022-07-21T01:58:02;99289.40;;;22.80
71081;BMP180;58740;50.672;18.690;2022-07-21T02:00:30;99288.60;;;22.80
71081;BMP180;58740;50.672;18.690;2022-07-21T02:02:58;99288.40;;;22.80
71081;BMP180;58740;50.672;18.690;2022-07-21T02:05:25;99286.40;;;22.80
71081;BMP180;58740;50.672;18.690;2022-07-21T02:07:53;99287.40;;;22.80
71081;BMP180;58740;50.672;18.690;2022-07-21T02:10:20;99278.80;;;22.80
71081;BMP180;58740;50.672;18.690;2022-07-21T02:12:48;99279.00;;;22.76
71081;BMP180;58740;50.672;18.690;2022-07-21T02:15:16;99279.40;;;22.70
71081;BMP180;58740;50.672;18.690;2022-07-21T02:17:44;99277.60;;;22.70
71081;BMP180;58740;50.672;18.690;2022-07-21T02:20:11;99278.80;;;22.70
71081;BMP180;58740;50.672;18.690;2022-07-21T02:22:39;99278.40;;;22.70
71081;BMP180;58740;50.672;18.690;2022-07-21T02:25:07;99281.40;;;22.70
71081;BMP180;58740;50.672;18.690;2022-07-21T02:27:35;99276.80;;;22.70
71081;BMP180;58740;50.672;18.690;2022-07-21T02:30:03;99277.00;;;22.68
71081;BMP180;58740;50.672;18.690;2022-07-21T02:32:31;99271.00;;;22.60
71081;BMP180;58740;50.672;18.690;2022-07-21T02:34:59;99268.60;;;22.60
71081;BMP180;58740;50.672;18.690;2022-07-21T02:37:28;99266.80;;;22.60
71081;BMP180;58740;50.672;18.690;2022-07-21T02:39:56;99268.00;;;22.60
71081;BMP180;58740;50.672;18.690;2022-07-21T02:42:23;99264.00;;;22.54
71081;BMP180;58740;50.672;18.690;2022-07-21T02:44:51;99266.20;;;22.60
71081;BMP180;58740;50.672;18.690;2022-07-21T02:47:19;99267.80;;;22.60
71081;BMP180;58740;50.672;18.690;2022-07-21T02:49:46;99267.60;;;22.56
71081;BMP180;58740;50.672;18.690;2022-07-21T02:52:15;99266.80;;;22.50
71081;BMP180;58740;50.672;18.690;2022-07-21T02:54:43;99268.60;;;22.56
71081;BMP180;58740;50.672;18.690;2022-07-21T02:57:11;99263.80;;;22.60
71081;BMP180;58740;50.672;18.690;2022-07-21T02:59:41;99259.20;;;22.60
71081;BMP180;58740;50.672;18.690;2022-07-21T03:02:08;99264.60;;;22.60
71081;BMP180;58740;50.672;18.690;2022-07-21T03:04:36;99258.40;;;22.58
71081;BMP180;58740;50.672;18.690;2022-07-21T03:07:04;99263.20;;;22.50
71081;BMP180;58740;50.672;18.690;2022-07-21T03:09:32;99266.20;;;22.50
71081;BMP180;58740;50.672;18.690;2022-07-21T03:11:59;99264.60;;;22.50
71081;BMP180;58740;50.672;18.690;2022-07-21T03:14:27;99267.20;;;22.50
71081;BMP180;58740;50.672;18.690;2022-07-21T03:16:55;99271.00;;;22.48
71081;BMP180;58740;50.672;18.690;2022-07-21T03:19:25;99261.80;;;22.40
71081;BMP180;58740;50.672;18.690;2022-07-21T03:21:52;99259.40;;;22.40
71081;BMP180;58740;50.672;18.690;2022-07-21T03:24:20;99256.60;;;22.40
71081;BMP180;58740;50.672;18.690;2022-07-21T03:26:48;99262.60;;;22.40
71081;BMP180;58740;50.672;18.690;2022-07-21T03:29:16;99260.40;;;22.40
71081;BMP180;58740;50.672;18.690;2022-07-21T03:31:44;99263.20;;;22.36
71081;BMP180;58740;50.672;18.690;2022-07-21T03:34:11;99258.80;;;22.40
71081;BMP180;58740;50.672;18.690;2022-07-21T03:36:39;99259.00;;;22.40
71081;BMP180;58740;50.672;18.690;2022-07-21T03:39:07;99258.20;;;22.40
71081;BMP180;58740;50.672;18.690;2022-07-21T03:41:35;99259.20;;;22.40
71081;BMP180;58740;50.672;18.690;2022-07-21T03:44:03;99261.60;;;22.40
71081;BMP180;58740;50.672;18.690;2022-07-21T03:46:30;99264.40;;;22.30
71081;BMP180;58740;50.672;18.690;2022-07-21T03:48:58;99267.60;;;22.32
71081;BMP180;58740;50.672;18.690;2022-07-21T03:51:27;99263.80;;;22.40
71081;BMP180;58740;50.672;18.690;2022-07-21T03:53:55;99267.40;;;22.40
71081;BMP180;58740;50.672;18.690;2022-07-21T03:56:22;99263.80;;;22.40
71081;BMP180;58740;50.672;18.690;2022-07-21T03:58:50;99265.00;;;22.40
71081;BMP180;58740;50.672;18.690;2022-07-21T04:01:18;99265.80;;;22.42
71081;BMP180;58740;50.672;18.690;2022-07-21T04:03:46;99266.00;;;22.50
71081;BMP180;58740;50.672;18.690;2022-07-21T04:06:17;99269.00;;;22.50
71081;BMP180;58740;50.672;18.690;2022-07-21T04:08:44;99270.40;;;22.50
71081;BMP180;58740;50.672;18.690;2022-07-21T04:11:12;99278.20;;;22.50
71081;BMP180;58740;50.672;18.690;2022-07-21T04:13:40;99275.00;;;22.50
71081;BMP180;58740;50.672;18.690;2022-07-21T04:16:08;99277.20;;;22.60
71081;BMP180;58740;50.672;18.690;2022-07-21T04:18:36;99278.40;;;22.60
71081;BMP180;58740;50.672;18.690;2022-07-21T04:21:04;99280.80;;;22.60
71081;BMP180;58740;50.672;18.690;2022-07-21T04:23:31;99282.00;;;22.60
71081;BMP180;58740;50.672;18.690;2022-07-21T04:26:00;99281.20;;;22.60
71081;BMP180;58740;50.672;18.690;2022-07-21T04:28:28;99280.00;;;22.64
71081;BMP180;58740;50.672;18.690;2022-07-21T04:30:56;99283.20;;;22.70
71081;BMP180;58740;50.672;18.690;2022-07-21T04:33:23;99277.20;;;22.70
71081;BMP180;58740;50.672;18.690;2022-07-21T04:35:51;99285.20;;;22.80
71081;BMP180;58740;50.672;18.690;2022-07-21T04:38:19;99286.60;;;22.80
71081;BMP180;58740;50.672;18.690;2022-07-21T04:40:46;99286.60;;;22.80
71081;BMP180;58740;50.672;18.690;2022-07-21T04:43:14;99284.60;;;22.80
71081;BMP180;58740;50.672;18.690;2022-07-21T04:45:44;99287.00;;;22.90
71081;BMP180;58740;50.672;18.690;2022-07-21T04:48:11;99282.60;;;22.90
71081;BMP180;58740;50.672;18.690;2022-07-21T04:50:39;99286.00;;;22.90
71081;BMP180;58740;50.672;18.690;2022-07-21T04:53:07;99285.60;;;23.00
71081;BMP180;58740;50.672;18.690;2022-07-21T04:55:35;99278.20;;;23.00
71081;BMP180;58740;50.672;18.690;2022-07-21T04:58:03;99284.00;;;23.08
71081;BMP180;58740;50.672;18.690;2022-07-21T05:00:31;99284.40;;;23.10
71081;BMP180;58740;50.672;18.690;2022-07-21T05:02:58;99290.40;;;23.10
71081;BMP180;58740;50.672;18.690;2022-07-21T05:05:26;99286.20;;;23.10
71081;BMP180;58740;50.672;18.690;2022-07-21T05:07:54;99287.40;;;23.20
71081;BMP180;58740;50.672;18.690;2022-07-21T05:10:22;99288.60;;;23.20
71081;BMP180;58740;50.672;18.690;2022-07-21T05:12:50;99289.60;;;23.30
71081;BMP180;58740;50.672;18.690;2022-07-21T05:15:18;99292.60;;;23.30
71081;BMP180;58740;50.672;18.690;2022-07-21T05:17:46;99288.20;;;23.40
71081;BMP180;58740;50.672;18.690;2022-07-21T05:20:14;99288.60;;;23.50
71081;BMP180;58740;50.672;18.690;2022-07-21T05:22:42;99291.20;;;23.60
71081;BMP180;58740;50.672;18.690;2022-07-21T05:25:09;99289.40;;;23.60
71081;BMP180;58740;50.672;18.690;2022-07-21T05:27:37;99287.20;;;23.70
71081;BMP180;58740;50.672;18.690;2022-07-21T05:30:06;99292.20;;;23.80
71081;BMP180;58740;50.672;18.690;2022-07-21T05:32:34;99291.00;;;23.82
71081;BMP180;58740;50.672;18.690;2022-07-21T05:35:03;99290.00;;;23.90
71081;BMP180;58740;50.672;18.690;2022-07-21T05:37:37;99292.60;;;24.00
71081;BMP180;58740;50.672;18.690;2022-07-21T05:40:07;99292.00;;;24.08
71081;BMP180;58740;50.672;18.690;2022-07-21T05:42:35;99292.00;;;24.10
71081;BMP180;58740;50.672;18.690;2022-07-21T05:45:04;99292.80;;;24.20
71081;BMP180;58740;50.672;18.690;2022-07-21T05:47:32;99300.80;;;24.30
71081;BMP180;58740;50.672;18.690;2022-07-21T05:50:00;99299.00;;;24.40
71081;BMP180;58740;50.672;18.690;2022-07-21T05:52:28;99300.40;;;24.50
71081;BMP180;58740;50.672;18.690;2022-07-21T05:54:56;99305.80;;;24.60
71081;BMP180;58740;50.672;18.690;2022-07-21T05:57:24;99303.20;;;24.70
71081;BMP180;58740;50.672;18.690;2022-07-21T05:59:52;99305.80;;;24.84
71081;BMP180;58740;50.672;18.690;2022-07-21T06:02:19;99303.40;;;25.00
71081;BMP180;58740;50.672;18.690;2022-07-21T06:04:47;99299.00;;;25.10
71081;BMP180;58740;50.672;18.690;2022-07-21T06:07:16;99304.60;;;25.28
71081;BMP180;58740;50.672;18.690;2022-07-21T06:09:44;99307.00;;;25.40
71081;BMP180;58740;50.672;18.690;2022-07-21T06:12:12;99309.20;;;25.58
71081;BMP180;58740;50.672;18.690;2022-07-21T06:14:40;99312.00;;;25.70
71081;BMP180;58740;50.672;18.690;2022-07-21T06:17:08;99309.20;;;25.80
71081;BMP180;58740;50.672;18.690;2022-07-21T06:19:36;99313.40;;;26.00
71081;BMP180;58740;50.672;18.690;2022-07-21T06:22:03;99317.60;;;26.10
71081;BMP180;58740;50.672;18.690;2022-07-21T06:24:31;99316.20;;;26.20
71081;BMP180;58740;50.672;18.690;2022-07-21T06:26:59;99312.60;;;26.30
71081;BMP180;58740;50.672;18.690;2022-07-21T06:29:33;99313.80;;;26.40
71081;BMP180;58740;50.672;18.690;2022-07-21T06:32:01;99314.20;;;26.50
71081;BMP180;58740;50.672;18.690;2022-07-21T06:34:28;99311.00;;;26.60
71081;BMP180;58740;50.672;18.690;2022-07-21T06:36:56;99313.00;;;26.70
71081;BMP180;58740;50.672;18.690;2022-07-21T06:39:24;99314.40;;;26.70
71081;BMP180;58740;50.672;18.690;2022-07-21T06:41:51;99317.00;;;26.80
71081;BMP180;58740;50.672;18.690;2022-07-21T06:44:19;99320.60;;;26.84
71081;BMP180;58740;50.672;18.690;2022-07-21T06:46:47;99321.20;;;26.90
71081;BMP180;58740;50.672;18.690;2022-07-21T06:49:15;99325.80;;;27.00
71081;BMP180;58740;50.672;18.690;2022-07-21T06:51:42;99324.40;;;27.10
71081;BMP180;58740;50.672;18.690;2022-07-21T06:54:10;99325.60;;;27.18
71081;BMP180;58740;50.672;18.690;2022-07-21T06:56:38;99321.60;;;27.20
71081;BMP180;58740;50.672;18.690;2022-07-21T06:59:05;99323.80;;;27.30
71081;BMP180;58740;50.672;18.690;2022-07-21T07:01:33;99326.40;;;27.40
71081;BMP180;58740;50.672;18.690;2022-07-21T07:04:03;99322.20;;;27.58
71081;BMP180;58740;50.672;18.690;2022-07-21T07:06:32;99319.60;;;27.70
71081;BMP180;58740;50.672;18.690;2022-07-21T07:09:00;99317.40;;;27.80
71081;BMP180;58740;50.672;18.690;2022-07-21T07:11:28;99313.80;;;27.96
71081;BMP180;58740;50.672;18.690;2022-07-21T07:13:56;99313.40;;;28.10
71081;BMP180;58740;50.672;18.690;2022-07-21T07:16:38;99309.20;;;28.20
71081;BMP180;58740;50.672;18.690;2022-07-21T07:19:06;99308.60;;;28.26
71081;BMP180;58740;50.672;18.690;2022-07-21T07:21:36;99302.20;;;28.30
71081;BMP180;58740;50.672;18.690;2022-07-21T07:24:03;99296.00;;;28.30
71081;BMP180;58740;50.672;18.690;2022-07-21T07:26:32;99290.20;;;28.32
71081;BMP180;58740;50.672;18.690;2022-07-21T07:29:00;99286.80;;;28.40
71081;BMP180;58740;50.672;18.690;2022-07-21T07:31:27;99290.80;;;28.50
71081;BMP180;58740;50.672;18.690;2022-07-21T07:33:55;99293.40;;;28.50
71081;BMP180;58740;50.672;18.690;2022-07-21T07:36:28;99292.20;;;28.50
71081;BMP180;58740;50.672;18.690;2022-07-21T07:38:57;99291.40;;;28.60
71081;BMP180;58740;50.672;18.690;2022-07-21T07:41:26;99296.20;;;28.70
71081;BMP180;58740;50.672;18.690;2022-07-21T07:43:54;99290.00;;;28.70
71081;BMP180;58740;50.672;18.690;2022-07-21T07:46:23;99287.60;;;28.80
71081;BMP180;58740;50.672;18.690;2022-07-21T07:48:51;99285.80;;;28.80
71081;BMP180;58740;50.672;18.690;2022-07-21T07:51:19;99290.00;;;28.90
71081;BMP180;58740;50.672;18.690;2022-07-21T07:53:47;99289.00;;;29.00
71081;BMP180;58740;50.672;18.690;2022-07-21T07:56:14;99291.60;;;29.02
71081;BMP180;58740;50.672;18.690;2022-07-21T07:58:42;99288.60;;;29.10
71081;BMP180;58740;50.672;18.690;2022-07-21T08:01:10;99287.00;;;29.20
71081;BMP180;58740;50.672;18.690;2022-07-21T08:03:41;99288.40;;;29.28
71081;BMP180;58740;50.672;18.690;2022-07-21T08:06:08;99291.60;;;29.30
71081;BMP180;58740;50.672;18.690;2022-07-21T08:08:37;99294.60;;;29.40
71081;BMP180;58740;50.672;18.690;2022-07-21T08:11:05;99293.60;;;29.40
71081;BMP180;58740;50.672;18.690;2022-07-21T08:13:32;99291.40;;;29.50
71081;BMP180;58740;50.672;18.690;2022-07-21T08:16:00;99284.20;;;29.60
71081;BMP180;58740;50.672;18.690;2022-07-21T08:18:28;99284.20;;;29.60
71081;BMP180;58740;50.672;18.690;2022-07-21T08:20:56;99277.80;;;29.68
71081;BMP180;58740;50.672;18.690;2022-07-21T08:23:23;99279.00;;;29.70
71081;BMP180;58740;50.672;18.690;2022-07-21T08:25:51;99281.20;;;29.80
71081;BMP180;58740;50.672;18.690;2022-07-21T08:28:19;99280.40;;;29.82
71081;BMP180;58740;50.672;18.690;2022-07-21T08:30:47;99280.80;;;29.90
71081;BMP180;58740;50.672;18.690;2022-07-21T08:33:14;99273.80;;;29.92
71081;BMP180;58740;50.672;18.690;2022-07-21T08:35:42;99275.40;;;29.96
71081;BMP180;58740;50.672;18.690;2022-07-21T08:38:10;99275.20;;;30.00
71081;BMP180;58740;50.672;18.690;2022-07-21T08:40:45;99274.20;;;30.00
71081;BMP180;58740;50.672;18.690;2022-07-21T08:43:13;99278.00;;;30.10
71081;BMP180;58740;50.672;18.690;2022-07-21T08:45:42;99277.80;;;30.10
71081;BMP180;58740;50.672;18.690;2022-07-21T08:48:10;99283.80;;;30.18
71081;BMP180;58740;50.672;18.690;2022-07-21T08:50:40;99282.80;;;30.20
71081;BMP180;58740;50.672;18.690;2022-07-21T08:53:08;99279.80;;;30.20
71081;BMP180;58740;50.672;18.690;2022-07-21T08:55:37;99284.60;;;30.30
71081;BMP180;58740;50.672;18.690;2022-07-21T08:58:11;99281.60;;;30.30
71081;BMP180;58740;50.672;18.690;2022-07-21T09:00:43;99283.20;;;30.30
71081;BMP180;58740;50.672;18.690;2022-07-21T09:03:15;99281.80;;;30.30
71081;BMP180;58740;50.672;18.690;2022-07-21T09:08:51;99279.60;;;30.40
71081;BMP180;58740;50.672;18.690;2022-07-21T09:11:27;99284.40;;;30.44
71081;BMP180;58740;50.672;18.690;2022-07-21T09:14:12;99290.60;;;30.50
71081;BMP180;58740;50.672;18.690;2022-07-21T09:16:43;99285.80;;;30.60
71081;BMP180;58740;50.672;18.690;2022-07-21T09:19:24;99287.20;;;30.60
71081;BMP180;58740;50.672;18.690;2022-07-21T09:21:58;99287.00;;;30.60
71081;BMP180;58740;50.672;18.690;2022-07-21T09:24:31;99279.20;;;30.60
71081;BMP180;58740;50.672;18.690;2022-07-21T09:27:12;99269.20;;;30.70
71081;BMP180;58740;50.672;18.690;2022-07-21T09:29:51;99272.20;;;30.70
71081;BMP180;58740;50.672;18.690;2022-07-21T09:35:11;99260.80;;;30.90
71081;BMP180;58740;50.672;18.690;2022-07-21T09:37:42;99256.80;;;31.00
71081;BMP180;58740;50.672;18.690;2022-07-21T09:40:13;99255.80;;;31.10
71081;BMP180;58740;50.672;18.690;2022-07-21T09:42:51;99251.80;;;31.12
71081;BMP180;58740;50.672;18.690;2022-07-21T09:45:20;99252.40;;;31.10
71081;BMP180;58740;50.672;18.690;2022-07-21T09:47:48;99251.80;;;31.20
71081;BMP180;58740;50.672;18.690;2022-07-21T09:50:17;99245.60;;;31.20
71081;BMP180;58740;50.672;18.690;2022-07-21T09:52:56;99244.80;;;31.30
71081;BMP180;58740;50.672;18.690;2022-07-21T09:55:27;99242.20;;;31.30
71081;BMP180;58740;50.672;18.690;2022-07-21T09:57:57;99241.40;;;31.40
71081;BMP180;58740;50.672;18.690;2022-07-21T10:00:26;99249.40;;;31.40
71081;BMP180;58740;50.672;18.690;2022-07-21T10:02:55;99258.80;;;31.40
71081;BMP180;58740;50.672;18.690;2022-07-21T10:05:24;99256.00;;;31.50
71081;BMP180;58740;50.672;18.690;2022-07-21T10:08:03;99250.80;;;31.50
71081;BMP180;58740;50.672;18.690;2022-07-21T10:10:34;99245.00;;;31.50
71081;BMP180;58740;50.672;18.690;2022-07-21T10:13:23;99240.80;;;31.50
71081;BMP180;58740;50.672;18.690;2022-07-21T10:15:52;99243.00;;;31.50
71081;BMP180;58740;50.672;18.690;2022-07-21T10:18:35;99241.80;;;31.50
71081;BMP180;58740;50.672;18.690;2022-07-21T10:23:55;99239.40;;;31.54
71081;BMP180;58740;50.672;18.690;2022-07-21T10:26:24;99236.60;;;31.60
71081;BMP180;58740;50.672;18.690;2022-07-21T10:28:52;99237.40;;;31.70
71081;BMP180;58740;50.672;18.690;2022-07-21T10:31:23;99238.40;;;31.70
71081;BMP180;58740;50.672;18.690;2022-07-21T10:33:55;99229.80;;;31.70
71081;BMP180;58740;50.672;18.690;2022-07-21T10:41:44;99219.60;;;31.80
71081;BMP180;58740;50.672;18.690;2022-07-21T10:47:08;99222.80;;;31.90
71081;BMP180;58740;50.672;18.690;2022-07-21T10:57:41;99223.00;;;32.00
71081;BMP180;58740;50.672;18.690;2022-07-21T11:00:25;99213.80;;;32.10
71081;BMP180;58740;50.672;18.690;2022-07-21T11:03:02;99221.20;;;32.00
71081;BMP180;58740;50.672;18.690;2022-07-21T11:05:34;99221.20;;;32.00
71081;BMP180;58740;50.672;18.690;2022-07-21T11:08:18;99216.00;;;32.00
71081;BMP180;58740;50.672;18.690;2022-07-21T11:10:52;99224.60;;;32.06
71081;BMP180;58740;50.672;18.690;2022-07-21T11:13:22;99214.80;;;32.10
71081;BMP180;58740;50.672;18.690;2022-07-21T11:16:00;99219.80;;;32.10
71081;BMP180;58740;50.672;18.690;2022-07-21T11:18:31;99216.60;;;32.10
71081;BMP180;58740;50.672;18.690;2022-07-21T11:21:14;99214.60;;;32.10
71081;BMP180;58740;50.672;18.690;2022-07-21T11:23:49;99215.20;;;32.10
71081;BMP180;58740;50.672;18.690;2022-07-21T11:26:24;99213.60;;;32.10
71081;BMP180;58740;50.672;18.690;2022-07-21T11:29:06;99223.80;;;32.20
71081;BMP180;58740;50.672;18.690;2022-07-21T11:31:46;99214.00;;;32.20
71081;BMP180;58740;50.672;18.690;2022-07-21T11:34:14;99216.00;;;32.20
71081;BMP180;58740;50.672;18.690;2022-07-21T11:36:42;99211.60;;;32.24
71081;BMP180;58740;50.672;18.690;2022-07-21T11:39:13;99210.00;;;32.30
71081;BMP180;58740;50.672;18.690;2022-07-21T11:41:42;99207.20;;;32.30
71081;BMP180;58740;50.672;18.690;2022-07-21T11:44:11;99199.80;;;32.30
71081;BMP180;58740;50.672;18.690;2022-07-21T11:46:54;99201.60;;;32.40
71081;BMP180;58740;50.672;18.690;2022-07-21T11:49:23;99203.20;;;32.40
71081;BMP180;58740;50.672;18.690;2022-07-21T11:51:58;99196.60;;;32.40
71081;BMP180;58740;50.672;18.690;2022-07-21T11:57:02;99192.20;;;32.40
71081;BMP180;58740;50.672;18.690;2022-07-21T11:59:32;99182.00;;;32.40
71081;BMP180;58740;50.672;18.690;2022-07-21T12:02:05;99183.60;;;32.40
71081;BMP180;58740;50.672;18.690;2022-07-21T12:04:43;99184.60;;;32.40
71081;BMP180;58740;50.672;18.690;2022-07-21T12:07:28;99175.40;;;32.40
71081;BMP180;58740;50.672;18.690;2022-07-21T12:10:11;99177.20;;;32.38
71081;BMP180;58740;50.672;18.690;2022-07-21T12:12:47;99179.00;;;32.40
71081;BMP180;58740;50.672;18.690;2022-07-21T12:15:27;99185.80;;;32.40
71081;BMP180;58740;50.672;18.690;2022-07-21T12:18:06;99175.80;;;32.50
71081;BMP180;58740;50.672;18.690;2022-07-21T12:20:40;99175.40;;;32.50
71081;BMP180;58740;50.672;18.690;2022-07-21T12:25:48;99171.80;;;32.60
71081;BMP180;58740;50.672;18.690;2022-07-21T12:28:43;99178.60;;;32.60
71081;BMP180;58740;50.672;18.690;2022-07-21T12:31:15;99178.00;;;32.70
71081;BMP180;58740;50.672;18.690;2022-07-21T12:33:44;99174.40;;;32.70
71081;BMP180;58740;50.672;18.690;2022-07-21T12:36:33;99167.60;;;32.70
71081;BMP180;58740;50.672;18.690;2022-07-21T12:39:23;99171.20;;;32.70
71081;BMP180;58740;50.672;18.690;2022-07-21T12:42:35;99168.20;;;32.80
71081;BMP180;58740;50.672;18.690;2022-07-21T12:45:20;99168.00;;;32.80
71081;BMP180;58740;50.672;18.690;2022-07-21T12:48:09;99158.60;;;32.80
71081;BMP180;58740;50.672;18.690;2022-07-21T12:50:39;99157.00;;;32.74
71081;BMP180;58740;50.672;18.690;2022-07-21T12:53:11;99155.80;;;32.80
71081;BMP180;58740;50.672;18.690;2022-07-21T12:55:39;99151.60;;;32.80
71081;BMP180;58740;50.672;18.690;2022-07-21T12:58:07;99146.60;;;32.80
71081;BMP180;58740;50.672;18.690;2022-07-21T13:00:35;99145.40;;;32.80
71081;BMP180;58740;50.672;18.690;2022-07-21T13:03:02;99145.40;;;32.90
71081;BMP180;58740;50.672;18.690;2022-07-21T13:05:30;99153.80;;;32.90
71081;BMP180;58740;50.672;18.690;2022-07-21T13:07:58;99150.80;;;32.90
71081;BMP180;58740;50.672;18.690;2022-07-21T13:10:26;99138.20;;;32.96
71081;BMP180;58740;50.672;18.690;2022-07-21T13:12:54;99139.20;;;32.98
71081;BMP180;58740;50.672;18.690;2022-07-21T13:15:23;99140.80;;;32.92
71081;BMP180;58740;50.672;18.690;2022-07-21T13:17:51;99132.40;;;32.90
71081;BMP180;58740;50.672;18.690;2022-07-21T13:20:18;99137.00;;;32.90
71081;BMP180;58740;50.672;18.690;2022-07-21T13:22:46;99131.60;;;33.00
71081;BMP180;58740;50.672;18.690;2022-07-21T13:25:14;99135.00;;;33.04
71081;BMP180;58740;50.672;18.690;2022-07-21T13:27:42;99129.80;;;33.02
71081;BMP180;58740;50.672;18.690;2022-07-21T13:30:16;99134.60;;;33.10
71081;BMP180;58740;50.672;18.690;2022-07-21T13:32:44;99130.60;;;33.10
71081;BMP180;58740;50.672;18.690;2022-07-21T13:35:13;99138.20;;;33.10
71081;BMP180;58740;50.672;18.690;2022-07-21T13:37:55;99121.60;;;33.18
71081;BMP180;58740;50.672;18.690;2022-07-21T13:40:25;99126.20;;;33.20
71081;BMP180;58740;50.672;18.690;2022-07-21T13:43:13;99125.00;;;33.20
71081;BMP180;58740;50.672;18.690;2022-07-21T13:46:04;99122.00;;;33.30
71081;BMP180;58740;50.672;18.690;2022-07-21T13:48:33;99124.60;;;33.30
71081;BMP180;58740;50.672;18.690;2022-07-21T13:51:14;99116.80;;;33.30
71081;BMP180;58740;50.672;18.690;2022-07-21T13:53:44;99115.00;;;33.30
71081;BMP180;58740;50.672;18.690;2022-07-21T13:56:12;99115.80;;;33.30
71081;BMP180;58740;50.672;18.690;2022-07-21T13:58:41;99117.80;;;33.30
71081;BMP180;58740;50.672;18.690;2022-07-21T14:01:11;99114.60;;;33.30
71081;BMP180;58740;50.672;18.690;2022-07-21T14:03:42;99115.00;;;33.30
71081;BMP180;58740;50.672;18.690;2022-07-21T14:06:10;99109.60;;;33.30
71081;BMP180;58740;50.672;18.690;2022-07-21T14:08:39;99109.00;;;33.30
71081;BMP180;58740;50.672;18.690;2022-07-21T14:11:08;99109.40;;;33.20
71081;BMP180;58740;50.672;18.690;2022-07-21T14:13:36;99113.60;;;33.30
71081;BMP180;58740;50.672;18.690;2022-07-21T14:16:05;99109.20;;;33.30
71081;BMP180;58740;50.672;18.690;2022-07-21T14:18:33;99105.60;;;33.30
71081;BMP180;58740;50.672;18.690;2022-07-21T14:21:01;99102.20;;;33.20
71081;BMP180;58740;50.672;18.690;2022-07-21T14:23:30;99108.00;;;33.20
71081;BMP180;58740;50.672;18.690;2022-07-21T14:25:59;99097.80;;;33.20
71081;BMP180;58740;50.672;18.690;2022-07-21T14:28:27;99104.40;;;33.20
71081;BMP180;58740;50.672;18.690;2022-07-21T14:30:55;99100.00;;;33.20
71081;BMP180;58740;50.672;18.690;2022-07-21T14:33:27;99096.20;;;33.20
71081;BMP180;58740;50.672;18.690;2022-07-21T14:35:57;99094.20;;;33.20
71081;BMP180;58740;50.672;18.690;2022-07-21T14:38:25;99091.20;;;33.20
71081;BMP180;58740;50.672;18.690;2022-07-21T14:40:53;99088.80;;;33.20
71081;BMP180;58740;50.672;18.690;2022-07-21T14:43:20;99086.80;;;33.20